Saint Helena Island, South Carolina
Current Conditions -  °F | °C
As of 5:15 PM on Thursday 23 Oct 2014 (Local Time) from KARW Reporting Station
Clear Clear  
Wind Chill: 70°   Ceiling: Unl
Heat Index: 70°   Visibility: 7mi
Dew Point: 48°   Wind: 7mph
Humidity: 46%   Direction: 310°NW
Pressure: 29.99"   Gusts: NA
Location:  32.32°N, 80.48°W
Report Text: KARW 232115Z AUTO 31006KT 7SM CLR 21/09 A2999 RMK AO2
Loading
Personal Weather Stations






























Interactive Weather Map
Tropical Storm Tracking
New forecast layout! Learn more

10-Day Weather Forecast

Advertisements
Track Severe Weather on mobile